ADDS METAR Data INFO
IDs: Format: Raw Decoded Include TAF

Data at: 1458 UTC 11 Dec 2017

KI23 111435Z AUTO 21004KT 10SM CLR M01/M05 A3007 RMK AO1
KI23 111415Z AUTO 20004KT 10SM CLR M01/M05 A3006 RMK AO1
KI23 111355Z AUTO 21004KT 10SM CLR M01/M05 A3006 RMK AO1
KI23 111335Z AUTO 00000KT 10SM CLR M02/M04 RMK AO1
KI23 111315Z AUTO 19003KT 10SM SCT024 M04/M06 RMK AO1
KI23 111255Z AUTO 19004KT 10SM BKN024 M03/M06 RMK AO1
KI23 111235Z AUTO 21003KT 10SM BKN024 M03/M05 RMK AO1
KI23 111215Z AUTO 20003KT 10SM BKN024 M03/M05 A3006 RMK AO1
KI23 111155Z AUTO 22003KT 10SM BKN024 M02/M05 RMK AO1
KI23 111135Z AUTO 23003KT 10SM OVC024 M03/M06 RMK AO1
KI23 111115Z AUTO 00000KT 10SM BKN024 M02/M05 RMK AO1
KI23 111055Z AUTO 27004KT 10SM BKN024 M02/M05 RMK AO1
KI23 111035Z AUTO 28003KT 10SM BKN024 M03/M05 RMK AO1
KI23 111015Z AUTO 30004KT 10SM BKN024 M02/M05 RMK AO1
KI23 110955Z AUTO 29004KT 10SM BKN024 M02/M04 A3007 RMK AO1
KI23 110935Z AUTO 27004KT 10SM OVC024 M02/M04 A3007 RMK AO1
KI23 110915Z AUTO 29006KT 10SM OVC024 M01/M04 A3007 RMK AO1
KI23 110855Z AUTO 30004KT 10SM BKN024 M01/M04 A3007 RMK AO1
KI23 110835Z AUTO 30005KT 10SM BKN024 M01/M04 A3007 RMK AO1
KI23 110815Z AUTO 29005KT 10SM BKN026 M01/M04 A3007 RMK AO1
KI23 110755Z AUTO 31006KT 10SM BKN026 M01/M04 A3006 RMK AO1
KI23 110735Z AUTO 31011KT 10SM BKN026 M01/M04 A3006 RMK AO1
KI23 110715Z AUTO 31011KT 10SM BKN026 M01/M04 A3006 RMK AO1
KI23 110655Z AUTO 28005KT 10SM OVC028 M01/M04 A3005 RMK AO1
KI23 110635Z AUTO 27007KT 10SM OVC028 M01/M04 A3004 RMK AO1
KI23 110615Z AUTO 26006KT 10SM OVC030 M02/M05 A3004 RMK AO1
KI23 110555Z AUTO 26007KT 10SM BKN032 M03/M05 RMK AO1
KI23 110535Z AUTO 25007KT 10SM CLR M03/M06 RMK AO1
KI23 110515Z AUTO 25007KT 10SM CLR M02/M05 RMK AO1
KI23 110455Z AUTO 25007KT 10SM SCT039 M02/M05 RMK AO1
KI23 110435Z AUTO 24009KT 10SM BKN039 M01/M05 A2999 RMK AO1
KI23 110415Z AUTO 24009G14KT 10SM OVC039 00/M04 A3000 RMK AO1
KI23 110355Z AUTO 24010KT 10SM OVC039 00/M04 A3001 RMK AO1
KI23 110335Z AUTO 23008KT 10SM OVC041 00/M04 A3000 RMK AO1
KI23 110315Z AUTO 23008KT 10SM OVC041 M01/M04 A3001 RMK AO1
KI23 110255Z AUTO 22007KT 10SM OVC041 M01/M04 A3001 RMK AO1
KI23 110235Z AUTO 22008KT 10SM OVC043 M01/M05 A3001 RMK AO1
KI23 110215Z AUTO 22007KT 10SM BKN045 M01/M05 A3001 RMK AO1
KI23 110155Z AUTO 22007KT 10SM BKN045 M01/M05 A3000 RMK AO1
KI23 110135Z AUTO 22006KT 10SM BKN045 M01/M05 A3000 RMK AO1
KI23 110115Z AUTO 22005KT 10SM SCT047 M02/M05 A2998 RMK AO1
KI23 110055Z AUTO 22006KT 10SM SCT045 M02/M05 A3000 RMK AO1
KI23 110035Z AUTO 22007KT 10SM BKN045 M01/M05 A3002 RMK AO1
KI23 110015Z AUTO 23005KT 10SM BKN047 M01/M05 A3000 RMK AO1
KI23 102355Z AUTO 22007KT 10SM CLR M01/M05 A2999 RMK AO1
KI23 102335Z AUTO 22008KT 10SM CLR M02/M05 RMK AO1
KI23 102315Z AUTO 22007KT 10SM CLR M02/M05 RMK AO1
KI23 102255Z AUTO 23008KT 10SM CLR M02/M06 RMK AO1
KI23 102235Z AUTO 23007KT 10SM CLR M02/M06 RMK AO1
KI23 102215Z AUTO 21007KT 10SM CLR M01/M06 RMK AO1
KI23 102155Z AUTO 20009G15KT 10SM CLR M01/M05 RMK AO1
KI23 102135Z AUTO 21011KT 10SM CLR M00/M05 A2996 RMK AO1
KI23 102115Z AUTO 20010KT 10SM CLR 00/M05 RMK AO1
KI23 102055Z AUTO 21014G17KT 10SM CLR 00/M05 RMK AO1
KI23 102035Z AUTO 21011KT 10SM CLR M00/M05 A2997 RMK AO1
KI23 102015Z AUTO 21010G15KT 10SM CLR M00/M05 A2997 RMK AO1
KI23 101955Z AUTO 21011G16KT 10SM CLR M01/M05 A2996 RMK AO1
KI23 101935Z AUTO 21018KT 10SM CLR M01/M06 RMK AO1
KI23 101915Z AUTO 22014G19KT 10SM CLR M01/M05 RMK AO1
KI23 101855Z AUTO 22017KT 10SM CLR M01/M06 RMK AO1
KI23 101835Z AUTO 22018G22KT 10SM CLR M02/M06 RMK AO1
KI23 101815Z AUTO 22014KT 10SM CLR M02/M06 RMK AO1
KI23 101755Z AUTO 21014G21KT 10SM CLR M02/M06 RMK AO1
KI23 101735Z AUTO 22011G17KT 10SM SCT065 M02/M06 RMK AO1
KI23 101715Z AUTO 22017KT 10SM CLR M03/M06 RMK AO1
KI23 101655Z AUTO 22016KT 10SM CLR M03/M06 RMK AO1
KI23 101635Z AUTO 22013KT 10SM CLR M03/M07 RMK AO1
KI23 101615Z AUTO 22016G20KT 10SM CLR M03/M07 RMK AO1
KI23 101555Z AUTO 23013KT 10SM CLR M04/M07 RMK AO1
KI23 101535Z AUTO 22013KT 10SM CLR M04/M07 RMK AO1
KI23 101515Z AUTO 23012KT 10SM CLR M04/M07 RMK AO1
KI23 101455Z AUTO 23012G17KT 10SM CLR M04/M07 RMK AO1
KI23 101435Z AUTO 23014KT 10SM CLR M04/M07 RMK AO1
KI23 101415Z AUTO 23014KT 10SM CLR M04/M07 RMK AO1
KI23 101355Z AUTO 23013KT 10SM CLR M04/M07 RMK AO1
KI23 101335Z AUTO 23011KT 10SM SCT028 M05/M07 RMK AO1
KI23 101315Z AUTO 24009KT 10SM OVC026 M04/M07 RMK AO1
KI23 101255Z AUTO 24009KT 10SM OVC026 M04/M07 RMK AO1
KI23 101235Z AUTO 24011KT 10SM BKN022 M04/M06 RMK AO1
KI23 101215Z AUTO 24011KT 10SM OVC020 M04/M06 RMK AO1
KI23 101155Z AUTO 24013KT 10SM OVC020 M04/M06 RMK AO1
KI23 101135Z AUTO 26011KT 10SM OVC022 M03/M05 RMK AO1
KI23 101115Z AUTO 25009KT 10SM OVC024 M04/M05 RMK AO1
KI23 101055Z AUTO 25008KT 10SM OVC026 M04/M06 RMK AO1
KI23 101035Z AUTO 25008KT 10SM OVC026 M04/M06 RMK AO1
KI23 101015Z AUTO 25007KT 10SM SCT017 BKN026 M04/M06 RMK AO1
KI23 100955Z AUTO 25008KT 10SM BKN017 OVC028 M04/M05 RMK AO1
KI23 100935Z AUTO 25010KT 10SM OVC017 M03/M05 RMK AO1
KI23 100915Z AUTO 25008KT 10SM OVC017 M03/M05 RMK AO1
KI23 100855Z AUTO 26007KT 10SM OVC015 M03/M04 RMK AO1
KI23 100835Z AUTO 27008KT 10SM BKN015 OVC030 M03/M04 RMK AO1
KI23 100815Z AUTO 27008KT 10SM SCT017 SCT023 OVC030 M02/M04 RMK AO1
KI23 100755Z AUTO 28011KT 10SM BKN015 BKN020 OVC028 M02/M04 RMK AO1
KI23 100735Z AUTO 27011KT 10SM BKN013 BKN027 OVC032 M02/M03 RMK AO1
KI23 100715Z AUTO 28010KT 10SM OVC013 M02/M03 RMK AO1
KI23 100655Z AUTO 27008KT 10SM BKN013 OVC022 M02/M03 RMK AO1
KI23 100635Z AUTO 28008KT 10SM BKN024 OVC031 M02/M04 RMK AO1
KI23 100615Z AUTO 28010KT 10SM OVC029 M02/M04 RMK AO1
KI23 100555Z AUTO 28007KT 10SM OVC027 M02/M04 RMK AO1
KI23 100535Z AUTO 30011G16KT 10SM OVC027 M02/M04 RMK AO1
KI23 100515Z AUTO 30012G15KT 10SM OVC029 M02/M04 RMK AO1
KI23 100455Z AUTO 30011KT 10SM OVC029 M02/M04 RMK AO1
KI23 100435Z AUTO 30012G18KT 10SM OVC029 M02/M04 RMK AO1
KI23 100415Z AUTO 30015KT 10SM SCT015 OVC029 M02/M04 RMK AO1
KI23 100355Z AUTO 29014KT 10SM SCT013 BKN017 OVC035 M02/M03 RMK AO1
KI23 100336Z AUTO 28013G19KT 10SM OVC011 M02/M03 RMK AO1
KI23 100315Z AUTO 28012KT 10SM OVC013 M02/M03 RMK AO1